LFSG 200030Z AUTO 14005KT CAVOK 18/15 Q1021 LFSG 200000Z AUTO VRB02KT CAVOK 16/14 Q1021 LFSG 192330Z AUTO 06002KT CAVOK 17/15 Q1021 LFSG 192300Z AUTO VRB02KT CAVOK 17/15 Q1021 LFSG 192230Z AUTO VRB02KT CAVOK 17/14 Q1021 LFSG 192200Z AUTO VRB02KT CAVOK 19/15 Q1021 LFSG 192130Z AUTO 14003KT 110V170 CAVOK 20/15 Q1021 LFSG 192100Z AUTO VRB01KT CAVOK 20/15 Q1021 LFSG 192030Z AUTO VRB02KT CAVOK 20/15 Q1021 LFSG 192000Z AUTO VRB01KT CAVOK 21/15 Q1021 LFSG 191930Z AUTO VRB02KT CAVOK 21/16 Q1021 LFSG 191900Z AUTO 19005KT CAVOK 24/16 Q1021 LFSG 191830Z AUTO 18007KT 9999 ///CB 25/16 Q1020 LFSG 191800Z AUTO 18008KT 9999 ///CB 25/16 Q1020 LFSG 191730Z AUTO 18010KT 9999 ///TCU 26/16 Q1020 LFSG 191700Z AUTO 19011KT CAVOK 27/15 Q1020 LFSG 191630Z AUTO 19012KT CAVOK 27/16 Q1020 LFSG 191600Z AUTO 19010KT CAVOK 27/16 Q1020 LFSG 191530Z AUTO 19011KT 150V210 9999 ///CB 27/16 Q1020 LFSG 191500Z AUTO 19012KT 9999 ///TCU 28/15 Q1020 LFSG 191430Z AUTO 19013KT 9999 ///TCU 28/15 Q1020 LFSG 191400Z AUTO 20013KT CAVOK 28/16 Q1020 LFSG 191330Z AUTO 18012KT 9999 ///CB 28/17 Q1020 LFSG 191300Z AUTO 19013KT CAVOK 27/17 Q1021 LFSG 191230Z AUTO 21012KT CAVOK 27/16 Q1021 LFSG 191200Z AUTO 21013KT CAVOK 28/15 Q1021 LFSG 191130Z AUTO 20014KT CAVOK 27/16 Q1021 LFSG 191100Z AUTO 20012KT CAVOK 27/16 Q1021 LFSG 191030Z AUTO 21013KT 9999 FEW008 26/16 Q1020 LFSG 191000Z AUTO 20014KT CAVOK 26/16 Q1021 LFSG 190930Z AUTO 20011KT CAVOK 25/17 Q1021 LFSG 190900Z AUTO 20009KT CAVOK 23/16 Q1021 LFSG 190830Z AUTO 21010KT 180V240 CAVOK 23/16 Q1021 LFSG 190800Z AUTO 22005KT 190V260 CAVOK 20/16 Q1021 LFSG 190730Z AUTO 15003KT 050V210 9999 ///CB 21/16 Q1021 LFSG 190700Z AUTO 22004KT 180V260 9999 TS ///CB 19/16 Q1020 LFSG 190630Z AUTO 22006KT 190V260 9999 ///CB 21/15 Q1020 LFSG 190600Z AUTO VRB03KT 9999 ///CB 19/14 Q1020 LFSG 190530Z AUTO VRB02KT CAVOK 16/14 Q1020 LFSG 190500Z AUTO VRB02KT CAVOK 14/12 Q1019 LFSG 190430Z AUTO 00000KT CAVOK 13/11 Q1019 LFSG 190400Z AUTO VRB02KT CAVOK 13/12 Q1019 LFSG 190330Z AUTO VRB02KT CAVOK 14/12 Q1019 LFSG 190300Z AUTO 22002KT CAVOK 13/12 Q1019 LFSG 190230Z AUTO 00000KT CAVOK 14/13 Q1019 LFSG 190200Z AUTO 25001KT CAVOK 14/12 Q1019 LFSG 190130Z AUTO 00000KT CAVOK 14/12 Q1019 LFSG 190100Z AUTO VRB02KT CAVOK 14/12 Q1019 LFSG 190030Z AUTO VRB01KT CAVOK 14/12 Q1019 LFSG 190000Z AUTO 00000KT CAVOK 15/13 Q1019 LFSG 182330Z AUTO 00000KT CAVOK 15/13 Q1019 LFSG 182300Z AUTO VRB02KT CAVOK 17/13 Q1019 LFSG 182230Z AUTO VRB02KT CAVOK 18/13 Q1019 LFSG 182200Z AUTO 00000KT CAVOK 19/13 Q1019 LFSG 182130Z AUTO 01002KT CAVOK 19/13 Q1019 LFSG 182100Z AUTO 35002KT CAVOK 20/13 Q1019 LFSG 182030Z AUTO VRB02KT CAVOK 20/14 Q1019 LFSG 182000Z AUTO 33002KT CAVOK 21/14 Q1019 LFSG 181930Z AUTO 00000KT CAVOK 22/14 Q1019 LFSG 181900Z AUTO 03003KT CAVOK 22/15 Q1019 LFSG 181830Z AUTO 04005KT CAVOK 24/15 Q1019 LFSG 181800Z AUTO 02004KT CAVOK 25/15 Q1019 LFSG 181730Z AUTO 02005KT CAVOK 26/15 Q1019 LFSG 181700Z AUTO 03004KT 350V060 CAVOK 28/13 Q1019 LFSG 181630Z AUTO 04005KT 010V070 CAVOK 28/12 Q1019 LFSG 181600Z AUTO 01003KT 300V080 CAVOK 29/12 Q1019 LFSG 181530Z AUTO 36005KT 320V020 CAVOK 28/11 Q1019 LFSG 181500Z AUTO 02004KT 340V060 CAVOK 28/11 Q1020 LFSG 181430Z AUTO 02003KT 310V080 CAVOK 28/11 Q1020 LFSG 181400Z AUTO 36004KT 300V060 CAVOK 28/11 Q1020 LFSG 181330Z AUTO 03006KT 350V060 CAVOK 28/13 Q1020 LFSG 181300Z AUTO 11006KT 070V130 CAVOK 28/12 Q1021

METAR Messwerte "EPINAL/MIRECOURT" LFSG

Zurück zur Übersicht

Ortsname
Ländercode / m ü. NN
Zeit Temperatur Taupunkt Rel.
Luftfeuchte
Luftdruck:
Altimeter
NN
Station
Wind in Beaufort
(Knoten)
Sichtweite
(Meter)
Wolken
(Meter über Grund)
Wettererscheinung
EPINAL/MIRECOURT
FR 320
Fr 20.05. 02:30181583 %1021
1021
983
SO 2 (5)>= 10000Nicht signifikant 
EPINAL/MIRECOURT
FR 320
Fr 20.05. 02:00161488 %1021
1021
983
Uml 1 (2)>= 10000Nicht signifikant 
EPINAL/MIRECOURT
FR 320
Fr 20.05. 01:30171588 %1021
1021
983
ONO 1 (2)>= 10000Nicht signifikant 
EPINAL/MIRECOURT
FR 320
Fr 20.05. 01:00171588 %1021
1021
983
Uml 1 (2)>= 10000Nicht signifikant 
EPINAL/MIRECOURT
FR 320
Fr 20.05. 00:30171482 %1021
1021
983
Uml 1 (2)>= 10000Nicht signifikant 
EPINAL/MIRECOURT
FR 320
Fr 20.05. 00:00191578 %1021
1021
983
Uml 1 (2)>= 10000Nicht signifikant 
EPINAL/MIRECOURT
FR 320
Do 19.05. 23:30201573 %1021
1020
983
SO 2 (3)
OSO - S
>= 10000Nicht signifikant 
EPINAL/MIRECOURT
FR 320
Do 19.05. 23:00201573 %1021
1020
983
Uml 1 (1)>= 10000Nicht signifikant 
EPINAL/MIRECOURT
FR 320
Do 19.05. 22:30201573 %1021
1020
983
Uml 1 (2)>= 10000Nicht signifikant 
EPINAL/MIRECOURT
FR 320
Do 19.05. 22:00211569 %1021
1020
983
Uml 1 (1)>= 10000Nicht signifikant 
EPINAL/MIRECOURT
FR 320
Do 19.05. 21:30211673 %1021
1020
983
Uml 1 (2)>= 10000Nicht signifikant 
EPINAL/MIRECOURT
FR 320
Do 19.05. 21:00241661 %1021
1020
983
S 2 (5)>= 10000Nicht signifikant 
EPINAL/MIRECOURT
FR 320
Do 19.05. 20:30251657 %1020
1019
982
S 3 (7)>= 10000  
EPINAL/MIRECOURT
FR 320
Do 19.05. 20:00251657 %1020
1019
982
S 3 (8)>= 10000  
EPINAL/MIRECOURT
FR 320
Do 19.05. 19:30261654 %1020
1019
982
S 3 (10)>= 10000  
EPINAL/MIRECOURT
FR 320
Do 19.05. 19:00271548 %1020
1019
982
S 4 (11)>= 10000Nicht signifikant 
EPINAL/MIRECOURT
FR 320
Do 19.05. 18:30271651 %1020
1019
982
S 4 (12)>= 10000Nicht signifikant 
EPINAL/MIRECOURT
FR 320
Do 19.05. 18:00271651 %1020
1019
982
S 3 (10)>= 10000Nicht signifikant 
EPINAL/MIRECOURT
FR 320
Do 19.05. 17:30271651 %1020
1019
982
S 4 (11)
SSO - SSW
>= 10000  
EPINAL/MIRECOURT
FR 320
Do 19.05. 17:00281545 %1020
1018
982
S 4 (12)>= 10000  
EPINAL/MIRECOURT
FR 320
Do 19.05. 16:30281545 %1020
1018
982
S 4 (13)>= 10000  
EPINAL/MIRECOURT
FR 320
Do 19.05. 16:00281648 %1020
1018
982
SSW 4 (13)>= 10000Nicht signifikant 
EPINAL/MIRECOURT
FR 320
Do 19.05. 15:30281751 %1020
1018
982
S 4 (12)>= 10000  
EPINAL/MIRECOURT
FR 320
Do 19.05. 15:00271754 %1021
1020
983
S 4 (13)>= 10000Nicht signifikant 
EPINAL/MIRECOURT
FR 320
Do 19.05. 14:30271651 %1021
1020
983
SSW 4 (12)>= 10000Nicht signifikant 
EPINAL/MIRECOURT
FR 320
Do 19.05. 14:00281545 %1021
1019
983
SSW 4 (13)>= 10000Nicht signifikant 
EPINAL/MIRECOURT
FR 320
Do 19.05. 13:30271651 %1021
1020
983
SSW 4 (14)>= 10000Nicht signifikant 
EPINAL/MIRECOURT
FR 320
Do 19.05. 13:00271651 %1021
1020
983
SSW 4 (12)>= 10000Nicht signifikant 
EPINAL/MIRECOURT
FR 320
Do 19.05. 12:30261654 %1020
1019
982
SSW 4 (13)>= 10000Leicht bewölkt (240) 
EPINAL/MIRECOURT
FR 320
Do 19.05. 12:00261654 %1021
1020
983
SSW 4 (14)>= 10000Nicht signifikant 
EPINAL/MIRECOURT
FR 320
Do 19.05. 11:30251761 %1021
1020
983
SSW 4 (11)>= 10000Nicht signifikant 
EPINAL/MIRECOURT
FR 320
Do 19.05. 11:00231665 %1021
1020
983
SSW 3 (9)>= 10000Nicht signifikant 
EPINAL/MIRECOURT
FR 320
Do 19.05. 10:30231665 %1021
1020
983
SSW 3 (10)
S - WSW
>= 10000Nicht signifikant 
EPINAL/MIRECOURT
FR 320
Do 19.05. 10:00201678 %1021
1020
983
SW 2 (5)
S - W
>= 10000Nicht signifikant 
EPINAL/MIRECOURT
FR 320
Do 19.05. 09:30211673 %1021
1020
983
SSO 2 (3)
NO - SSW
>= 10000  
EPINAL/MIRECOURT
FR 320
Do 19.05. 09:00191683 %1020
1020
982
SW 2 (4)
S - W
>= 10000  
EPINAL/MIRECOURT
FR 320
Do 19.05. 08:30211569 %1020
1019
982
SW 2 (6)
S - W
>= 10000  
EPINAL/MIRECOURT
FR 320
Do 19.05. 08:00191473 %1020
1020
982
Uml 2 (3)>= 10000  
EPINAL/MIRECOURT
FR 320
Do 19.05. 07:30161488 %1020
1020
982
Uml 1 (2)>= 10000Nicht signifikant 
EPINAL/MIRECOURT
FR 320
Do 19.05. 07:00141288 %1019
1019
981
Uml 1 (2)>= 10000Nicht signifikant 
EPINAL/MIRECOURT
FR 320
Do 19.05. 06:30131188 %1019
1019
981
Windstill>= 10000Nicht signifikant 
EPINAL/MIRECOURT
FR 320
Do 19.05. 06:00131294 %1019
1019
981
Uml 1 (2)>= 10000Nicht signifikant 
EPINAL/MIRECOURT
FR 320
Do 19.05. 05:30141288 %1019
1019
981
Uml 1 (2)>= 10000Nicht signifikant 
EPINAL/MIRECOURT
FR 320
Do 19.05. 05:00131294 %1019
1019
981
SW 1 (2)>= 10000Nicht signifikant 
EPINAL/MIRECOURT
FR 320
Do 19.05. 04:30141394 %1019
1019
981
Windstill>= 10000Nicht signifikant 
EPINAL/MIRECOURT
FR 320
Do 19.05. 04:00141288 %1019
1019
981
WSW 1 (1)>= 10000Nicht signifikant 
EPINAL/MIRECOURT
FR 320
Do 19.05. 03:30141288 %1019
1019
981
Windstill>= 10000Nicht signifikant 
EPINAL/MIRECOURT
FR 320
Do 19.05. 03:00141288 %1019
1019
981
Uml 1 (2)>= 10000Nicht signifikant 
EPINAL/MIRECOURT
FR 320
Do 19.05. 02:30141288 %1019
1019
981
Uml 1 (1)>= 10000Nicht signifikant 
EPINAL/MIRECOURT
FR 320
Do 19.05. 02:00151388 %1019
1019
981
Windstill>= 10000Nicht signifikant 
EPINAL/MIRECOURT
FR 320
Do 19.05. 01:30151388 %1019
1019
981
Windstill>= 10000Nicht signifikant 
EPINAL/MIRECOURT
FR 320
Do 19.05. 01:00171377 %1019
1019
981
Uml 1 (2)>= 10000Nicht signifikant 
EPINAL/MIRECOURT
FR 320
Do 19.05. 00:30181373 %1019
1019
981
Uml 1 (2)>= 10000Nicht signifikant 
EPINAL/MIRECOURT
FR 320
Do 19.05. 00:00191368 %1019
1019
981
Windstill>= 10000Nicht signifikant 
EPINAL/MIRECOURT
FR 320
Mi 18.05. 23:30191368 %1019
1019
981
N 1 (2)>= 10000Nicht signifikant 
EPINAL/MIRECOURT
FR 320
Mi 18.05. 23:00201364 %1019
1018
981
N 1 (2)>= 10000Nicht signifikant 
EPINAL/MIRECOURT
FR 320
Mi 18.05. 22:30201468 %1019
1018
981
Uml 1 (2)>= 10000Nicht signifikant 
EPINAL/MIRECOURT
FR 320
Mi 18.05. 22:00211464 %1019
1018
981
NNW 1 (2)>= 10000Nicht signifikant 
EPINAL/MIRECOURT
FR 320
Mi 18.05. 21:30221460 %1019
1018
981
Windstill>= 10000Nicht signifikant 
EPINAL/MIRECOURT
FR 320
Mi 18.05. 21:00221565 %1019
1018
981
NNO 2 (3)>= 10000Nicht signifikant 
EPINAL/MIRECOURT
FR 320
Mi 18.05. 20:30241557 %1019
1018
981
NO 2 (5)>= 10000Nicht signifikant 
EPINAL/MIRECOURT
FR 320
Mi 18.05. 20:00251554 %1019
1018
981
NNO 2 (4)>= 10000Nicht signifikant 
EPINAL/MIRECOURT
FR 320
Mi 18.05. 19:30261551 %1019
1018
981
NNO 2 (5)>= 10000Nicht signifikant 
EPINAL/MIRECOURT
FR 320
Mi 18.05. 19:00281340 %1019
1017
981
NNO 2 (4)
N - ONO
>= 10000Nicht signifikant 
EPINAL/MIRECOURT
FR 320
Mi 18.05. 18:30281237 %1019
1017
981
NO 2 (5)
N - ONO
>= 10000Nicht signifikant 
EPINAL/MIRECOURT
FR 320
Mi 18.05. 18:00291235 %1019
1017
981
N 2 (3)
WNW - O
>= 10000Nicht signifikant 
EPINAL/MIRECOURT
FR 320
Mi 18.05. 17:30281135 %1019
1017
981
N 2 (5)
NW - NNO
>= 10000Nicht signifikant 
EPINAL/MIRECOURT
FR 320
Mi 18.05. 17:00281135 %1020
1018
982
NNO 2 (4)
NNW - ONO
>= 10000Nicht signifikant 
EPINAL/MIRECOURT
FR 320
Mi 18.05. 16:30281135 %1020
1018
982
NNO 2 (3)
NW - O
>= 10000Nicht signifikant 
EPINAL/MIRECOURT
FR 320
Mi 18.05. 16:00281135 %1020
1018
982
N 2 (4)
WNW - ONO
>= 10000Nicht signifikant 
EPINAL/MIRECOURT
FR 320
Mi 18.05. 15:30281340 %1020
1018
982
NNO 2 (6)
N - ONO
>= 10000Nicht signifikant 
EPINAL/MIRECOURT
FR 320
Mi 18.05. 15:00281237 %1021
1019
983
OSO 2 (6)
ONO - SO
>= 10000Nicht signifikant 

Altimeter: Einstellung am Altimeter (Höhenmesser), die Höhe 0 muss auf diesen Luftdruckwert zeigen, damit das Gerät die Stationshöhe richtig anzeigt.

NN: Luftdruck reduziert auf "Normal Null", auf Meereshöhe, dieser von der Temperatur abhängige Wert wird bisweilen unkorrekt einfach als "Luftdruck" bezeichnet. Eigentlich nur eine fiktive Größe, die es erlaubt, Stationen auf unterschiedlichen Höhen miteinander zu vergleichen.

Station: Realer Luftdruck an der Station.